Time;durP1;ratioP1;P1;durP2;ratioP2;P2;SDS_P1;SDS_P2;PMS_P1;PMS_P2;Temp;Humidity;BMP_temperature;BMP_pressure;BME280_temperature;BME280_humidity;BME280_pressure;Samples;Min_cycle;Max_cycle;Signal;HPM_P1;HPM_P2
2022/07/29 00:02:48;;;;;;;6.23;1.97;;;;;;;21.48;45.08;99577.34;12251765;19;20489;-82
2022/07/29 00:06:51;;;;;;;4.28;2.15;;;;;;;21.32;45.29;99576.94;12195265;19;20010;-82
2022/07/29 00:10:52;;;;;;;6.27;2.93;;;;;;;21.24;45.90;99583.38;12207176;19;20620;-82
2022/07/29 00:14:55;;;;;;;4.20;2.05;;;;;;;21.13;45.85;99587.63;12209974;19;20271;-81
2022/07/29 00:18:57;;;;;;;4.85;2.28;;;;;;;20.98;46.29;99585.28;12184093;19;20629;-82
2022/07/29 00:23:03;;;;;;;4.75;2.25;;;;;;;20.83;46.93;99584.56;12220668;19;20032;-82
2022/07/29 00:27:04;;;;;;;4.07;2.30;;;;;;;20.76;47.32;99577.78;12210334;19;20010;-82
2022/07/29 00:31:07;;;;;;;4.03;1.92;;;;;;;20.64;48.22;99579.22;12190753;19;20018;-82
2022/07/29 00:39:29;;;;;;;3.05;2.28;;;;;;;20.64;47.18;99575.59;12222731;19;20488;-83
2022/07/29 00:43:32;;;;;;;10.30;2.47;;;;;;;20.67;47.40;99577.75;12202564;19;20031;-82
2022/07/29 00:47:33;;;;;;;7.00;2.70;;;;;;;20.66;48.10;99590.91;12228710;19;20017;-83
2022/07/29 00:51:36;;;;;;;3.88;2.30;;;;;;;20.55;48.65;99574.72;12224733;19;20027;-82
2022/07/29 00:55:38;;;;;;;6.55;2.40;;;;;;;20.47;48.38;99574.34;12204203;19;20389;-84
2022/07/29 00:59:40;;;;;;;8.48;2.63;;;;;;;20.41;48.05;99577.59;12217347;19;20067;-83
2022/07/29 01:03:41;;;;;;;4.07;2.33;;;;;;;20.39;47.38;99566.72;12222453;19;20717;-83
2022/07/29 01:07:45;;;;;;;5.80;2.20;;;;;;;20.44;47.25;99554.56;12195024;19;20066;-82
2022/07/29 01:11:48;;;;;;;6.10;2.33;;;;;;;20.43;46.61;99564.91;12218651;19;20031;-82
2022/07/29 01:15:54;;;;;;;;;;;;;;;20.40;46.93;99548.75;12185059;19;20540;-80
2022/07/29 01:20:05;;;;;;;4.97;2.15;;;;;;;20.36;46.77;99561.75;12210585;19;19935;-80
2022/07/29 01:24:15;;;;;;;4.72;2.38;;;;;;;20.34;46.63;99558.44;12215018;19;20078;-82
2022/07/29 01:28:44;;;;;;;3.90;2.13;;;;;;;20.28;46.83;99545.75;12188513;19;20006;-82
2022/07/29 01:32:54;;;;;;;5.25;2.00;;;;;;;20.26;46.56;99545.25;12203875;19;20007;-82
2022/07/29 01:37:10;;;;;;;5.65;2.30;;;;;;;20.25;46.41;99541.63;12192705;19;20014;-81
2022/07/29 01:41:20;;;;;;;6.55;1.90;;;;;;;20.26;46.27;99542.47;12211085;19;20151;-82
2022/07/29 01:45:33;;;;;;;7.30;2.17;;;;;;;20.15;47.37;99535.47;12214136;19;20034;-82
2022/07/29 01:49:39;;;;;;;6.68;1.95;;;;;;;20.07;47.01;99519.47;12183587;19;20006;-81
2022/07/29 01:53:54;;;;;;;7.15;1.95;;;;;;;20.04;46.87;99526.53;12209389;19;20007;-82
2022/07/29 01:57:58;;;;;;;3.70;1.98;;;;;;;19.99;46.95;99532.28;12191779;19;20046;-81
2022/07/29 02:02:01;;;;;;;4.70;1.98;;;;;;;19.98;47.03;99534.22;12212942;19;20386;-81
2022/07/29 02:06:05;;;;;;;3.80;1.88;;;;;;;19.94;46.80;99526.81;12206579;19;20531;-82
2022/07/29 02:10:10;;;;;;;4.05;1.77;;;;;;;19.94;47.13;99530.41;12186350;19;20038;-81
2022/07/29 02:14:14;;;;;;;5.93;2.20;;;;;;;19.97;47.35;99528.97;12208783;19;20122;-80
2022/07/29 02:18:18;;;;;;;3.83;1.77;;;;;;;19.95;47.37;99525.66;12211279;19;20021;-80
2022/07/29 02:22:20;;;;;;;6.45;1.92;;;;;;;19.96;47.06;99525.34;12184839;19;20014;-80
2022/07/29 02:26:25;;;;;;;4.90;2.50;;;;;;;19.99;46.86;99529.47;12201049;19;20010;-81
2022/07/29 02:30:30;;;;;;;6.47;2.70;;;;;;;19.98;46.40;99531.41;12210452;19;20011;-80
2022/07/29 02:34:34;;;;;;;7.22;2.25;;;;;;;19.95;46.28;99529.25;12184186;19;20026;-80
2022/07/29 02:38:52;;;;;;;10.40;2.42;;;;;;;19.91;46.35;99533.84;12201620;19;20038;-80
2022/07/29 02:42:54;;;;;;;7.22;2.33;;;;;;;19.90;45.72;99521.03;12179464;19;20093;-81
2022/07/29 02:47:30;;;;;;;5.78;2.33;;;;;;;19.94;45.65;99526.81;12209173;19;20106;-80
2022/07/29 02:51:50;;;;;;;11.27;2.65;;;;;;;19.90;45.70;99517.38;12202335;19;20014;-80
2022/07/29 02:55:58;;;;;;;7.63;2.90;;;;;;;19.85;45.82;99518.34;12178863;19;22754;-81
2022/07/29 03:00:06;;;;;;;5.20;2.25;;;;;;;19.78;45.94;99523.56;12204806;19;20054;-81
2022/07/29 03:04:11;;;;;;;6.35;2.53;;;;;;;19.74;45.95;99520.56;12177805;19;20067;-80
2022/07/29 03:08:15;;;;;;;6.60;2.70;;;;;;;19.67;46.05;99525.78;12197220;19;20011;-82
2022/07/29 03:12:17;;;;;;;14.23;2.53;;;;;;;19.66;45.99;99523.31;12205265;19;20859;-82
2022/07/29 03:16:20;;;;;;;3.28;2.17;;;;;;;19.59;46.20;99521.75;12166111;19;20046;-82
2022/07/29 03:20:22;;;;;;;;;;;;;;;19.48;46.49;99514.78;12212567;19;20631;-83
2022/07/29 03:24:28;;;;;;;5.22;2.67;;;;;;;19.44;46.33;99516.53;12212848;19;19931;-82
2022/07/29 03:28:31;;;;;;;10.30;2.55;;;;;;;19.33;46.69;99502.00;12177022;19;20579;-82
2022/07/29 03:32:33;;;;;;;6.32;2.22;;;;;;;19.32;46.89;99505.09;12205983;19;20030;-82
2022/07/29 03:36:35;;;;;;;7.23;2.70;;;;;;;19.22;47.24;99503.38;12244393;19;20011;-84
2022/07/29 03:40:48;;;;;;;5.55;2.50;;;;;;;19.22;47.18;99500.56;12194481;19;20042;-82
2022/07/29 03:44:52;;;;;;;5.90;2.30;;;;;;;19.17;47.09;99497.91;12208002;19;20014;-82
2022/07/29 03:48:59;;;;;;;6.75;2.30;;;;;;;19.14;47.18;99504.09;12180651;19;20058;-82
2022/07/29 03:53:02;;;;;;;5.53;2.30;;;;;;;19.15;47.14;99502.13;12205085;19;20006;-81
2022/07/29 03:57:05;;;;;;;7.25;2.30;;;;;;;19.19;46.82;99508.75;12187846;19;20014;-82
2022/07/29 04:01:07;;;;;;;;;;;;;;;19.19;47.01;99498.41;12182191;19;20078;-81
2022/07/29 04:05:13;;;;;;;7.05;2.58;;;;;;;19.20;47.18;99493.66;12216331;19;20463;-84
2022/07/29 04:09:14;;;;;;;6.55;2.55;;;;;;;19.21;46.91;99500.88;12200575;19;20011;-81
2022/07/29 04:13:19;;;;;;;6.80;3.03;;;;;;;19.20;46.91;99510.41;12176142;19;20014;-81
2022/07/29 04:17:22;;;;;;;5.47;2.67;;;;;;;19.20;46.81;99511.22;12195549;19;20010;-81
2022/07/29 04:21:24;;;;;;;6.50;2.50;;;;;;;19.24;46.90;99508.63;12205715;19;20023;-82
2022/07/29 04:25:26;;;;;;;8.48;2.47;;;;;;;19.26;46.86;99507.16;12186141;19;20014;-80
2022/07/29 04:29:27;;;;;;;6.95;2.92;;;;;;;19.29;46.72;99511.31;12207710;19;20730;-81
2022/07/29 04:33:29;;;;;;;9.43;2.75;;;;;;;19.31;46.64;99517.41;12202722;19;20021;-82
2022/07/29 04:37:31;;;;;;;7.45;2.80;;;;;;;19.31;46.68;99509.03;12190096;19;20007;-81
2022/07/29 04:41:33;;;;;;;5.00;2.37;;;;;;;19.31;46.26;99509.84;12204371;19;20006;-82
2022/07/29 04:45:35;;;;;;;5.65;2.45;;;;;;;19.31;46.31;99512.66;12208643;19;20014;-82
2022/07/29 04:49:38;;;;;;;5.97;2.75;;;;;;;19.35;46.25;99513.66;12188135;19;20006;-82
2022/07/29 04:53:39;;;;;;;;;;;;;;;19.39;46.71;99518.63;12205960;19;20017;-82
2022/07/29 04:57:41;;;;;;;9.93;2.50;;;;;;;19.41;46.11;99514.38;12201543;19;19995;-82
2022/07/29 05:01:43;;;;;;;5.88;2.55;;;;;;;19.43;46.66;99520.47;12187157;19;20023;-82
2022/07/29 05:05:45;;;;;;;11.63;3.22;;;;;;;19.46;46.38;99514.25;12204392;19;20393;-81
2022/07/29 05:09:46;;;;;;;13.93;3.10;;;;;;;19.51;46.52;99516.09;12203912;19;20069;-81
2022/07/29 05:13:48;;;;;;;7.10;3.15;;;;;;;19.58;46.70;99522.06;12188481;19;20777;-82
2022/07/29 05:17:50;;;;;;;5.90;3.00;;;;;;;19.55;46.96;99520.72;12204210;19;20599;-81
2022/07/29 05:21:51;;;;;;;7.30;3.38;;;;;;;19.64;46.52;99514.41;12214611;19;20032;-81
2022/07/29 05:25:53;;;;;;;5.82;2.88;;;;;;;19.68;47.01;99518.22;12189601;19;20393;-82
2022/07/29 05:29:54;;;;;;;7.30;2.78;;;;;;;19.71;47.08;99515.63;12206023;19;20139;-82
2022/07/29 05:33:56;;;;;;;7.32;3.17;;;;;;;19.77;46.80;99522.72;12183824;19;20090;-82
2022/07/29 05:37:58;;;;;;;7.28;3.10;;;;;;;19.89;46.78;99516.56;12202484;19;20014;-80
2022/07/29 05:41:59;;;;;;;7.20;2.58;;;;;;;19.95;47.09;99520.88;12211213;19;20091;-82
2022/07/29 05:46:01;;;;;;;6.93;3.55;;;;;;;19.98;46.70;99530.59;12181765;19;20015;-82
2022/07/29 05:50:04;;;;;;;5.47;2.95;;;;;;;19.99;46.27;99533.09;12204552;19;20014;-81
2022/07/29 05:54:05;;;;;;;9.75;3.05;;;;;;;20.14;46.06;99529.06;12207082;19;20074;-82
2022/07/29 05:58:07;;;;;;;7.60;2.95;;;;;;;20.23;46.28;99535.53;12187286;19;20019;-81
2022/07/29 06:02:09;;;;;;;7.35;3.25;;;;;;;20.29;45.87;99535.41;12201782;19;20047;-82
2022/07/29 06:06:11;;;;;;;7.95;3.45;;;;;;;20.35;45.85;99540.53;12209623;19;20501;-81
2022/07/29 06:10:13;;;;;;;5.72;3.45;;;;;;;20.52;45.71;99544.53;12188323;19;20062;-82
2022/07/29 06:14:14;;;;;;;7.37;3.07;;;;;;;20.64;45.92;99542.00;12206979;19;20014;-82
2022/07/29 06:18:17;;;;;;;4.82;2.60;;;;;;;20.80;45.75;99539.59;12198138;19;20017;-82
2022/07/29 06:22:18;;;;;;;6.20;3.08;;;;;;;20.95;45.74;99547.53;12186502;19;20082;-82
2022/07/29 06:26:24;;;;;;;9.05;2.95;;;;;;;21.14;44.82;99547.25;12199791;19;20489;-83
2022/07/29 06:30:32;;;;;;;12.98;3.83;;;;;;;21.32;44.72;99545.28;12203693;19;20011;-83
2022/07/29 06:34:35;;;;;;;8.73;3.13;;;;;;;21.53;44.28;99540.72;12183194;19;20007;-83
2022/07/29 06:38:38;;;;;;;14.38;3.40;;;;;;;21.71;43.62;99538.72;12190018;19;20786;-83
2022/07/29 06:42:45;;;;;;;11.25;3.25;;;;;;;21.96;43.30;99545.50;12198474;19;20006;-82
2022/07/29 06:46:49;;;;;;;7.35;3.58;;;;;;;22.20;43.17;99544.97;12178559;19;20575;-84
2022/07/29 06:50:51;;;;;;;5.60;2.67;;;;;;;22.32;42.87;99544.28;12197506;19;20017;-83
2022/07/29 06:54:54;;;;;;;6.18;3.08;;;;;;;22.39;42.46;99549.38;12217015;19;20025;-82
2022/07/29 06:58:56;;;;;;;9.73;3.15;;;;;;;22.38;42.33;99551.38;12189464;19;20018;-85
2022/07/29 07:02:58;;;;;;;7.32;2.80;;;;;;;22.42;42.20;99555.13;12235873;19;20202;-83
2022/07/29 07:06:59;;;;;;;8.70;3.25;;;;;;;22.61;42.37;99562.38;12204766;19;20476;-82
2022/07/29 07:11:01;;;;;;;8.00;3.35;;;;;;;22.67;41.99;99561.84;12207146;19;20015;-82
2022/07/29 07:15:03;;;;;;;8.00;3.03;;;;;;;22.73;41.84;99579.31;12212013;19;20011;-83
2022/07/29 07:19:05;;;;;;;6.85;3.30;;;;;;;22.99;41.95;99579.22;12188104;19;20349;-84
2022/07/29 07:23:07;;;;;;;8.85;3.50;;;;;;;23.25;41.61;99579.06;12211456;19;20014;-83
2022/07/29 07:27:08;;;;;;;8.60;3.43;;;;;;;23.52;41.73;99577.72;12206255;19;20359;-84
2022/07/29 07:31:11;;;;;;;7.00;3.10;;;;;;;23.83;41.51;99579.34;12179223;19;20017;-83
2022/07/29 07:35:14;;;;;;;6.28;3.13;;;;;;;24.11;41.43;99586.03;12211991;19;20014;-86
2022/07/29 07:39:15;;;;;;;8.32;3.60;;;;;;;24.44;41.10;99588.03;12215635;19;20125;-84
2022/07/29 07:43:18;;;;;;;6.07;3.30;;;;;;;24.83;41.50;99582.13;12182451;19;20018;-83
2022/07/29 07:47:23;;;;;;;6.47;3.15;;;;;;;24.99;41.39;99581.06;12215069;19;20015;-83
2022/07/29 07:51:28;;;;;;;7.45;3.28;;;;;;;25.15;41.30;99581.22;12214069;19;20002;-84
2022/07/29 07:55:30;;;;;;;9.30;3.40;;;;;;;25.45;41.34;99576.13;12193605;19;20014;-85
2022/07/29 07:59:52;;;;;;;7.95;3.15;;;;;;;25.74;41.23;99579.00;12214045;19;20024;-85
2022/07/29 08:03:54;;;;;;;8.13;3.30;;;;;;;25.88;40.76;99574.63;12217492;19;20015;-84
2022/07/29 08:07:56;;;;;;;6.13;3.30;;;;;;;25.81;40.90;99565.91;12193518;19;20007;-85
2022/07/29 08:11:59;;;;;;;5.55;3.50;;;;;;;25.94;40.83;99574.34;12211348;19;20010;-84
2022/07/29 08:16:01;;;;;;;;;;;;;;;26.22;40.14;99571.53;12205679;19;20024;-84
2022/07/29 08:20:05;;;;;;;6.10;3.40;;;;;;;26.51;40.19;99567.53;12221401;19;19911;-86
2022/07/29 08:28:30;;;;;;;7.25;3.55;;;;;;;26.80;40.09;99571.91;12193394;19;20011;-84
2022/07/29 08:32:32;;;;;;;7.78;3.30;;;;;;;27.17;40.06;99572.47;12216623;19;20010;-83
2022/07/29 08:36:55;;;;;;;7.03;3.40;;;;;;;27.70;39.99;99581.38;12214867;19;20007;-87
2022/07/29 08:40:58;;;;;;;5.00;3.15;;;;;;;27.92;40.05;99582.66;12179955;19;20543;-86
2022/07/29 08:45:00;;;;;;;7.03;3.25;;;;;;;27.61;40.26;99572.25;12211371;19;20497;-85
2022/07/29 08:49:01;;;;;;;8.23;3.40;;;;;;;27.59;40.75;99585.97;12192811;19;20070;-87
2022/07/29 08:53:04;;;;;;;6.90;3.53;;;;;;;27.56;40.43;99581.03;12214778;19;20104;-84
2022/07/29 08:57:06;;;;;;;5.45;3.47;;;;;;;27.63;39.52;99581.19;12205493;19;20014;-85
2022/07/29 09:01:11;;;;;;;7.88;3.47;;;;;;;28.06;39.43;99582.16;12209138;19;20017;-85
2022/07/29 09:05:15;;;;;;;9.55;3.67;;;;;;;28.08;38.90;99582.59;12213158;19;20018;-85
2022/07/29 09:09:17;;;;;;;5.43;3.63;;;;;;;28.02;39.38;99581.28;12210360;19;20023;-85
2022/07/29 09:13:19;;;;;;;10.52;4.60;;;;;;;28.09;39.95;99578.56;12191906;19;20086;-85
2022/07/29 09:17:51;;;;;;;7.60;3.35;;;;;;;28.45;39.15;99579.31;12203909;19;20889;-85
2022/07/29 09:21:59;;;;;;;7.15;3.35;;;;;;;28.32;39.59;99572.16;12202946;19;20010;-84
2022/07/29 09:26:08;;;;;;;6.47;3.90;;;;;;;28.42;39.92;99577.22;12205422;19;20025;-85
2022/07/29 09:30:13;;;;;;;7.40;3.72;;;;;;;28.44;39.75;99574.00;12207940;19;20006;-86
2022/07/29 09:34:29;;;;;;;6.47;3.75;;;;;;;28.47;39.69;99574.09;12190778;19;20053;-85
2022/07/29 09:38:32;;;;;;;6.07;3.63;;;;;;;28.60;39.91;99572.69;12224817;19;20021;-85
2022/07/29 09:42:34;;;;;;;7.20;3.88;;;;;;;28.88;39.11;99571.56;12213805;19;20022;-86
2022/07/29 09:46:35;;;;;;;5.20;3.42;;;;;;;29.07;38.72;99560.16;12178112;19;20034;-84
2022/07/29 09:50:42;;;;;;;7.35;3.90;;;;;;;29.23;38.25;99568.50;12206231;19;20347;-81
2022/07/29 09:54:44;;;;;;;5.85;3.70;;;;;;;29.33;38.22;99569.91;12217394;19;20011;-81
2022/07/29 09:58:46;;;;;;;8.57;4.32;;;;;;;29.50;38.21;99568.50;12201920;19;20014;-82
2022/07/29 10:02:48;;;;;;;6.28;3.95;;;;;;;29.66;37.93;99574.03;12224911;19;20006;-80
2022/07/29 10:07:01;;;;;;;5.00;4.10;;;;;;;29.46;37.98;99561.97;12220127;19;20017;-81
2022/07/29 10:11:14;;;;;;;6.72;4.03;;;;;;;29.72;37.92;99558.31;12192964;19;20010;-81
2022/07/29 10:15:16;;;;;;;9.45;4.38;;;;;;;30.03;37.94;99564.78;12215845;19;20010;-81
2022/07/29 10:19:18;;;;;;;7.13;4.28;;;;;;;30.08;37.11;99565.25;12189557;19;20401;-81
2022/07/29 10:23:20;;;;;;;6.85;4.13;;;;;;;30.23;37.06;99552.06;12207247;19;20067;-82
2022/07/29 10:27:21;;;;;;;5.18;3.78;;;;;;;30.38;36.47;99550.19;12210255;19;20006;-83
2022/07/29 10:31:36;;;;;;;7.85;4.30;;;;;;;30.83;36.28;99554.69;12188705;19;20018;-81
2022/07/29 10:35:38;;;;;;;6.35;4.15;;;;;;;30.82;36.18;99547.38;12211089;19;20015;-82
2022/07/29 10:41:25;;;;;;;6.55;4.50;;;;;;;30.69;36.25;99557.38;12225923;19;20024;-84
2022/07/29 10:44:25;;;;;;;6.68;3.85;;;;;;;30.94;35.99;99554.00;12206241;19;20081;-83
2022/07/29 10:48:27;;;;;;;9.27;4.18;;;;;;;30.94;35.74;99549.13;12226128;19;20017;-81
2022/07/29 10:52:50;;;;;;;6.15;3.78;;;;;;;31.04;35.42;99547.56;12207545;19;20015;-83
2022/07/29 10:56:52;;;;;;;7.43;4.35;;;;;;;30.69;35.94;99548.84;12222051;19;20010;-83
2022/07/29 11:00:54;;;;;;;6.65;4.05;;;;;;;31.10;35.78;99534.59;12222440;19;20018;-84
2022/07/29 11:05:00;;;;;;;9.57;4.45;;;;;;;31.24;35.31;99526.16;12202789;19;20007;-83
2022/07/29 11:09:19;;;;;;;7.65;4.20;;;;;;;31.69;34.62;99518.28;12216770;19;20027;-83
2022/07/29 11:13:46;;;;;;;7.15;4.70;;;;;;;32.25;33.77;99518.13;12194497;19;20010;-84
2022/07/29 11:17:53;;;;;;;5.80;4.13;;;;;;;32.21;33.66;99516.03;12213004;19;20007;-82
2022/07/29 11:21:55;;;;;;;8.80;4.05;;;;;;;32.53;33.37;99523.88;12218799;19;20007;-83
2022/07/29 11:26:21;;;;;;;8.93;4.50;;;;;;;32.93;32.90;99513.31;12193524;19;20020;-84
2022/07/29 11:30:50;;;;;;;5.13;4.25;;;;;;;32.95;32.05;99527.97;12212738;19;20010;-80
2022/07/29 11:35:12;;;;;;;5.88;4.10;;;;;;;33.26;31.88;99532.06;12185204;19;20014;-83
2022/07/29 11:39:25;;;;;;;8.93;4.72;;;;;;;33.02;31.73;99515.75;12214400;19;20011;-81
2022/07/29 11:43:52;;;;;;;10.77;4.70;;;;;;;32.40;31.96;99522.63;12189069;19;20014;-84
2022/07/29 11:47:58;;;;;;;6.47;4.25;;;;;;;32.10;33.18;99517.28;12206280;19;20035;-83
2022/07/29 11:52:06;;;;;;;10.38;4.90;;;;;;;32.55;33.17;99512.88;12193279;19;20010;-82
2022/07/29 11:56:14;;;;;;;9.60;4.55;;;;;;;33.58;32.08;99509.16;12210195;19;20021;-82
2022/07/29 12:00:22;;;;;;;8.43;4.47;;;;;;;33.94;31.41;99497.56;12206123;19;20055;-83
2022/07/29 12:04:26;;;;;;;7.25;4.55;;;;;;;34.28;30.82;99504.75;12195197;19;20094;-82
2022/07/29 12:08:29;;;;;;;6.78;5.30;;;;;;;34.49;30.48;99496.81;12210402;19;20400;-81
2022/07/29 12:12:30;;;;;;;8.00;4.55;;;;;;;34.83;29.77;99501.06;12207376;19;20451;-82
2022/07/29 12:16:37;;;;;;;6.00;5.18;;;;;;;35.39;29.14;99488.25;12193094;19;20018;-80
2022/07/29 12:20:39;;;;;;;7.93;5.22;;;;;;;35.96;28.00;99491.69;12210633;19;20007;-80
2022/07/29 12:24:44;;;;;;;7.47;5.05;;;;;;;36.28;27.21;99482.66;12212030;19;20002;-80
2022/07/29 12:28:51;;;;;;;8.77;5.30;;;;;;;36.57;26.92;99485.09;12188448;19;20022;-80
2022/07/29 12:32:55;;;;;;;7.63;4.85;;;;;;;37.03;26.13;99481.44;12210084;19;20027;-77
2022/07/29 12:36:57;;;;;;;6.00;5.30;;;;;;;37.56;25.24;99488.25;12210777;19;20114;-80
2022/07/29 12:40:59;;;;;;;6.63;5.05;;;;;;;38.16;24.89;99478.75;12184257;19;20014;-82
2022/07/29 12:45:01;;;;;;;5.70;5.03;;;;;;;38.72;23.47;99464.25;12217008;19;20440;-81
2022/07/29 12:49:03;;;;;;;6.47;4.80;;;;;;;39.35;23.65;99457.25;12181290;19;20003;-82
2022/07/29 12:53:11;;;;;;;6.28;4.30;;;;;;;39.35;23.04;99455.19;12210558;19;20024;-82
2022/07/29 12:57:13;;;;;;;5.00;4.30;;;;;;;39.30;23.11;99452.88;12211150;19;20026;-82
2022/07/29 13:01:21;;;;;;;5.32;4.18;;;;;;;39.65;22.55;99455.97;12200594;19;20018;-81
2022/07/29 13:05:24;;;;;;;7.95;4.22;;;;;;;39.80;22.16;99451.44;12221656;19;20007;-82
2022/07/29 13:09:40;;;;;;;6.53;4.30;;;;;;;40.67;21.58;99450.34;12229546;19;20011;-81
2022/07/29 13:13:51;;;;;;;7.50;4.03;;;;;;;40.77;20.62;99446.25;12211919;19;20396;-82
2022/07/29 13:18:31;;;;;;;5.57;3.78;;;;;;;41.14;20.57;99454.47;12224965;19;21569;-81
2022/07/29 13:22:32;;;;;;;7.07;4.20;;;;;;;41.38;20.60;99446.16;12199032;19;20019;-80
2022/07/29 13:26:34;;;;;;;7.85;4.10;;;;;;;40.01;20.93;99452.84;12218666;19;20003;-81
2022/07/29 13:30:36;;;;;;;5.75;4.43;;;;;;;38.82;22.82;99453.72;12219476;19;19998;-81
2022/07/29 13:34:45;;;;;;;7.15;4.60;;;;;;;38.03;23.76;99452.75;12192483;19;20519;-81
2022/07/29 13:38:47;;;;;;;6.32;4.10;;;;;;;38.53;23.39;99446.66;12216213;19;20485;-82
2022/07/29 13:42:48;;;;;;;7.85;4.68;;;;;;;39.15;22.77;99451.66;12222838;19;20011;-81
2022/07/29 13:46:50;;;;;;;5.55;4.07;;;;;;;38.17;22.69;99443.81;12180744;19;20061;-81
2022/07/29 13:50:52;;;;;;;5.60;4.20;;;;;;;37.11;22.91;99450.53;12221777;19;20018;-81
2022/07/29 13:54:54;;;;;;;5.20;4.10;;;;;;;36.00;23.96;99458.88;12219912;19;20011;-80
2022/07/29 13:58:56;;;;;;;8.25;4.45;;;;;;;35.30;24.96;99447.06;12196624;19;20022;-80
2022/07/29 14:02:58;;;;;;;4.72;3.90;;;;;;;34.62;25.58;99444.84;12216033;19;20018;-79
2022/07/29 14:07:01;;;;;;;7.43;3.72;;;;;;;33.81;26.44;99453.53;12197459;19;20010;-81
2022/07/29 14:11:04;;;;;;;6.15;4.20;;;;;;;32.92;27.71;99460.28;12215829;19;20015;-80
2022/07/29 14:15:06;;;;;;;;;;;;;;;32.35;28.39;99458.25;12210747;19;20018;-80
2022/07/29 14:19:07;;;;;;;6.25;3.90;;;;;;;31.84;28.71;99456.50;12195254;19;20267;-82
2022/07/29 14:23:09;;;;;;;7.35;3.83;;;;;;;31.77;28.90;99456.50;12219196;19;20487;-80
2022/07/29 14:27:13;;;;;;;5.15;3.67;;;;;;;31.40;29.78;99456.72;12251297;19;20031;-82
2022/07/29 14:31:15;;;;;;;6.10;3.97;;;;;;;31.10;30.76;99463.44;12216680;19;20006;-82
2022/07/29 14:35:17;;;;;;;9.20;3.55;;;;;;;30.77;31.85;99467.25;12211662;19;20015;-80
2022/07/29 14:39:19;;;;;;;7.47;3.67;;;;;;;30.50;31.65;99473.13;12215759;19;20010;-78
2022/07/29 14:43:21;;;;;;;10.07;3.95;;;;;;;30.43;31.72;99475.94;12184574;19;20025;-80
2022/07/29 14:47:23;;;;;;;5.72;3.78;;;;;;;30.42;32.19;99466.56;12208568;19;20018;-80
2022/07/29 14:51:25;;;;;;;;;;;;;;;30.50;32.85;99470.28;12204031;19;20006;-78
2022/07/29 14:55:33;;;;;;;8.40;4.22;;;;;;;30.55;32.70;99469.94;12182818;19;19947;-79
2022/07/29 14:59:34;;;;;;;6.63;4.15;;;;;;;30.60;32.40;99461.03;12204123;19;20015;-79
2022/07/29 15:03:37;;;;;;;8.60;3.80;;;;;;;30.94;32.68;99460.91;12199934;19;20007;-78
2022/07/29 15:07:39;;;;;;;6.82;3.90;;;;;;;31.25;32.00;99465.16;12179161;19;20035;-78
2022/07/29 15:11:41;;;;;;;5.68;4.10;;;;;;;31.33;31.96;99457.50;12190238;19;20043;-78
2022/07/29 15:15:44;;;;;;;11.23;4.18;;;;;;;31.82;31.05;99460.97;12198935;19;20010;-78
2022/07/29 15:19:47;;;;;;;7.13;3.92;;;;;;;32.63;30.08;99462.34;12186519;19;20015;-79
2022/07/29 15:23:49;;;;;;;;;;;;;;;33.33;29.08;99462.69;12209481;19;20023;-78
2022/07/29 15:27:51;;;;;;;5.47;3.92;;;;;;;33.67;28.18;99465.03;12208102;19;19931;-79
2022/07/29 15:31:56;;;;;;;6.63;3.72;;;;;;;33.64;27.65;99460.13;12180529;19;20068;-79
2022/07/29 15:35:58;;;;;;;6.78;4.00;;;;;;;33.44;27.93;99474.91;12208821;19;20006;-78
2022/07/29 15:40:00;;;;;;;8.50;4.70;;;;;;;33.23;27.93;99480.69;12193657;19;20107;-78
2022/07/29 15:44:01;;;;;;;;;;;;;;;33.09;28.22;99479.47;12200801;19;20018;-79
2022/07/29 15:48:06;;;;;;;6.50;3.95;;;;;;;32.81;28.33;99482.31;12191021;19;19918;-79
2022/07/29 15:52:09;;;;;;;5.20;3.97;;;;;;;32.75;29.13;99483.94;12179686;19;20007;-81
2022/07/29 15:56:12;;;;;;;6.47;3.95;;;;;;;32.57;29.91;99473.38;12203884;19;20010;-79
2022/07/29 16:00:16;;;;;;;7.20;3.75;;;;;;;32.52;29.56;99468.06;12195922;19;20015;-78
2022/07/29 16:04:18;;;;;;;7.45;3.90;;;;;;;32.30;29.91;99452.94;12179556;19;20018;-77
2022/07/29 16:08:20;;;;;;;7.07;4.10;;;;;;;32.08;30.68;99460.66;12200485;19;20023;-77
2022/07/29 16:12:22;;;;;;;9.30;3.90;;;;;;;31.97;30.72;99468.34;12191644;19;20028;-80
2022/07/29 16:16:23;;;;;;;4.53;3.53;;;;;;;31.74;30.71;99474.38;12172044;19;20014;-77
2022/07/29 16:20:25;;;;;;;8.32;3.83;;;;;;;31.50;30.47;99470.19;12206149;19;19999;-81
2022/07/29 16:24:28;;;;;;;5.40;3.72;;;;;;;31.16;31.71;99496.00;12199738;19;20007;-79
2022/07/29 16:28:30;;;;;;;6.97;4.32;;;;;;;30.76;33.61;99509.13;12181501;19;20015;-77
2022/07/29 16:32:32;;;;;;;7.68;4.45;;;;;;;29.92;35.03;99507.81;12207092;19;20003;-79
2022/07/29 16:36:34;;;;;;;10.90;4.18;;;;;;;29.22;36.66;99507.28;12217316;19;20448;-81
2022/07/29 16:40:35;;;;;;;8.00;4.20;;;;;;;28.82;37.43;99500.19;12191134;19;20366;-79
2022/07/29 16:44:37;;;;;;;5.28;4.18;;;;;;;28.67;37.34;99515.28;12218391;19;20035;-79
2022/07/29 16:48:39;;;;;;;5.07;3.90;;;;;;;28.29;38.73;99510.53;12213294;19;20006;-78
2022/07/29 16:52:41;;;;;;;7.13;4.38;;;;;;;28.00;39.11;99520.53;12200470;19;20114;-79
2022/07/29 16:56:43;;;;;;;5.60;4.00;;;;;;;27.66;39.53;99512.53;12212570;19;20491;-81
2022/07/29 17:00:45;;;;;;;6.07;4.20;;;;;;;27.58;39.75;99522.06;12226898;19;20004;-80
2022/07/29 17:04:47;;;;;;;5.03;3.67;;;;;;;27.45;39.97;99517.72;12200465;19;20025;-80
2022/07/29 17:08:48;;;;;;;4.97;3.58;;;;;;;27.31;40.02;99523.06;12217701;19;20820;-80
2022/07/29 17:12:50;;;;;;;4.35;3.65;;;;;;;27.12;40.64;99535.13;12229109;19;20003;-81
2022/07/29 17:16:54;;;;;;;4.45;3.50;;;;;;;26.92;40.14;99537.06;12194714;19;20051;-79
2022/07/29 17:21:02;;;;;;;5.28;3.20;;;;;;;26.83;40.04;99548.59;12192172;19;20007;-81
2022/07/29 17:25:05;;;;;;;5.10;3.65;;;;;;;26.68;39.76;99547.41;12199083;19;20011;-81
2022/07/29 17:29:06;;;;;;;3.70;3.22;;;;;;;26.44;40.51;99550.34;12216738;19;20035;-81
2022/07/29 17:33:08;;;;;;;4.70;3.43;;;;;;;26.31;41.03;99543.94;12214861;19;20092;-80
2022/07/29 17:37:11;;;;;;;3.93;3.10;;;;;;;26.13;41.53;99544.28;12193355;19;20017;-80
2022/07/29 17:41:12;;;;;;;;;;;;;;;26.04;42.00;99539.97;12211006;19;20363;-82
2022/07/29 17:45:14;;;;;;;5.03;3.35;;;;;;;25.95;42.57;99534.50;12214978;19;19911;-82
2022/07/29 17:49:16;;;;;;;5.63;3.40;;;;;;;25.67;44.28;99531.63;12200321;19;20015;-81
2022/07/29 17:53:18;;;;;;;6.45;3.70;;;;;;;25.62;43.47;99551.66;12219303;19;20011;-83
2022/07/29 17:57:19;;;;;;;6.45;3.83;;;;;;;25.45;43.60;99561.19;12212530;19;20013;-82
2022/07/29 18:01:21;;;;;;;5.10;3.27;;;;;;;25.34;43.81;99577.78;12199398;19;20000;-81
2022/07/29 18:05:23;;;;;;;5.03;3.50;;;;;;;25.29;44.24;99588.50;12214888;19;20010;-83
2022/07/29 18:09:25;;;;;;;5.80;3.67;;;;;;;25.18;44.62;99599.41;12230363;19;20002;-82
2022/07/29 18:13:27;;;;;;;6.50;4.07;;;;;;;24.95;45.50;99602.66;12245133;19;20007;-82
2022/07/29 18:17:29;;;;;;;6.60;4.30;;;;;;;24.81;46.16;99602.22;12234707;19;20036;-83
2022/07/29 18:21:51;;;;;;;7.53;4.15;;;;;;;24.54;48.07;99610.13;12234775;19;20334;-81
2022/07/29 18:25:57;;;;;;;5.85;3.75;;;;;;;24.51;47.60;99622.09;12207974;19;20034;-81
2022/07/29 18:29:58;;;;;;;6.60;4.45;;;;;;;24.38;48.28;99622.38;12202624;19;20410;-82
2022/07/29 18:34:05;;;;;;;5.85;3.85;;;;;;;24.33;47.83;99626.22;12188652;19;20011;-81
2022/07/29 18:38:07;;;;;;;5.07;3.77;;;;;;;24.23;48.61;99630.28;12215178;19;20028;-81
2022/07/29 18:42:08;;;;;;;8.20;3.60;;;;;;;24.16;48.52;99638.47;12203369;19;20017;-82
2022/07/29 18:46:10;;;;;;;7.85;3.83;;;;;;;24.05;48.92;99629.63;12191302;19;20007;-82
2022/07/29 18:50:15;;;;;;;7.70;3.80;;;;;;;23.89;50.80;99634.25;12203763;19;20021;-82
2022/07/29 18:54:17;;;;;;;6.97;4.55;;;;;;;23.81;50.92;99646.38;12223770;19;20018;-82
2022/07/29 18:58:35;;;;;;;5.72;4.00;;;;;;;23.74;51.28;99651.75;12176606;19;20023;-83
2022/07/29 19:02:38;;;;;;;10.20;4.30;;;;;;;23.63;51.76;99659.72;12204806;19;20010;-82
2022/07/29 19:06:43;;;;;;;6.43;4.35;;;;;;;23.54;53.07;99673.00;12212297;19;20058;-82
2022/07/29 19:10:45;;;;;;;7.03;4.32;;;;;;;23.49;53.48;99670.38;12186492;19;20010;-83